x

Cape San Martin - 55nm West Nw Of Morro Bay, Ca (46028) Weather Station

12:50am - Tue 31st Mar 2015 All times are PDT. -7 hours from GMT.

  • Wind
    29mph, 36mph gusts
  • Sea Temp 59°f
  • Air Temp 56°f
  • Sea Pressure 1016.9mb
  • Cape San Martin - 55nm West Nw Of Morro Bay, Ca
  • Cape San Martin - 55nm West Nw Of Morro Bay, Ca

More Historic Weather Station data

Upgrade to MSW Pro to gain access to the past 30 days of data for over 8000 Wavebouys and Weather Stations around the globe.

Join Pro

Comparision Forecast

View Surf forecast
   
Tue 03/31 12:50am  -   -   -  29 36 mph 1016.9mb 59f 56f
Mon 03/30 11:50pm 11ft 11s 7s 31 38 mph 1017mb 59f 56f
10:50pm  -   -   -  31 36 mph 1017.1mb 59f 56f
9:50pm 11ft 14s 7s 29 36 mph 1017mb 59f 57f
8:50pm  -   -   -  31 36 mph 1016.3mb 60f 56f
7:50pm  -   -   -  29 36 mph 1015.7mb 60f 56f
5:50pm  -   -   -  29 36 mph 1016mb 60f 56f
4:50pm  -   -   -  29 34 mph 1016.2mb 60f 56f
3:50pm 10ft 11s 7s 27 31 mph 1016.7mb 60f 56f
2:50pm 9ft 15s 7s 25 31 mph 1017mb 60f 56f
1:50pm 9ft 12s 7s 25 29 mph 1017.4mb 60f 56f
12:50pm 9ft 16s 7s 22 25 mph 1017.7mb 59f 56f
11:50am 9ft 12s 7s 22 27 mph 1018mb 59f 55f
10:50am 9ft 12s 7s 22 27 mph 1017.8mb 59f 56f
9:50am 9ft 16s 7s 22 27 mph 1017.2mb 59f 56f
8:50am 9ft 16s 7s 22 27 mph 1016.4mb 59f 56f
7:50am  -   -   -  22 27 mph 1015.9mb 59f 56f
6:50am  -   -   -  22 27 mph 1015.4mb 59f 56f
5:50am  -   -   -  20 22 mph 1015.4mb 59f 56f
4:50am 8ft 13s 7s 18 22 mph 1015.5mb 59f 57f
3:50am  -   -   -  22
mph
1015.4mb 59f 56f
2:50am 9ft 16s 7s 20 25 mph 1015.7mb 59f 57f
1:50am  -   -   -  22 27 mph 1015.7mb 59f 57f
12:50am 9.5ft 16s 7s 22 27 mph 1016mb 59f 57f
Sun 03/29 11:50pm 9ft 10s 7s 22 29 mph 1016.1mb 59f 57f
9:50pm 10ft 17s 7s 25 29 mph 1016.3mb 59f 57f
8:50pm 10ft 17s 7s 25 29 mph 1016.2mb 59f 57f
7:50pm  -   -   -  25 31 mph 1015.7mb 59f 57f
6:50pm 9.5ft 17s 7s 25 29 mph 1015.8mb 59f 57f
5:50pm  -   -   -  25 29 mph 1016mb 59f 57f
4:50pm 8ft 17s 7s 25 29 mph 1016.4mb 59f 57f
3:50pm  -   -   -  22 27 mph 1017.1mb 59f 57f
2:50pm  -   -   -  22 25 mph 1017.4mb 59f 57f
1:50pm 9ft 9s 7s 20 22 mph 1018mb 59f 56f
12:50pm 9.5ft 9s 7s 18 22 mph 1018.8mb 59f 56f
11:50am 10ft 9s 7s 22 27 mph 1018.8mb 59f 56f
10:50am 10ft 10s 7s 25 29 mph 1018.8mb 59f 56f
9:50am 10.5ft 11s 7s 27 31 mph 1018.4mb 59f 56f
8:50am  -   -   -  25 31 mph 1018mb 59f 56f
7:50am  -   -   -  22 29 mph 1017.9mb 59f 56f
6:50am  -   -   -  25 29 mph 1017.9mb 59f 56f
5:50am  -   -   -  27 31 mph 1017.2mb 59f 56f
4:50am 11ft 8s 7s 29 36 mph 1016.8mb 59f 56f
3:50am 11ft 9s 7s 29 36 mph 1017.1mb 59f 56f
2:50am 10.5ft 7s 7s 27 36 mph 1017.4mb 59f 56f
1:50am 11ft 11s 7s 29 36 mph 1017.4mb 58f 56f
12:50am 11ft 8s 7s 31 36 mph 1017.6mb 58f 57f
Sat 03/28 11:50pm 11.5ft 9s 7s 31 38 mph 1017.8mb 59f 57f
10:50pm 11ft 9s 7s 31 40 mph 1017.3mb 59f 57f
9:50pm  -   -   -  31 36 mph 1017mb 59f 58f
8:50pm 11ft 8s 7s 31 36 mph 1016.5mb 59f 58f
7:50pm 10ft 8s 7s 27 34 mph 1016.4mb 59f 58f
6:50pm 10ft 8s 7s 27 36 mph 1016.5mb 59f 58f
5:50pm 9ft 11s 7s 27 31 mph 1016.6mb 59f 58f
4:50pm 9.5ft 10s 7s 22 27 mph 1017mb 59f 58f
3:50pm 9ft 9s 7s 25 29 mph 1017.4mb 59f 58f
2:50pm 9ft 8s 7s 22 27 mph 1017.7mb 59f 57f
1:50pm 9.5ft 12s 7s 22 27 mph 1018.5mb 58f 57f
12:50pm 8.5ft 8s 6s 22 25 mph 1019.3mb 58f 57f
11:50am 9ft 13s 6s 22 27 mph 1019.8mb 58f 56f
10:50am 9ft 7s 7s 20 25 mph 1020.1mb 58f 56f
9:50am  -   -   -  25 27 mph 1019.8mb 58f 56f
8:50am  -   -   -  27 29 mph 1019.2mb 58f 56f
7:50am 10.5ft 7s 6s 29 34 mph 1018.6mb 58f 56f
6:50am 10ft 8s 6s 29 34 mph 1018.3mb 58f 56f
5:50am 10.5ft 12s 6s 29 34 mph 1018.5mb 58f 56f
4:50am  -   -   -  29 36 mph 1018.1mb 58f 57f
3:50am  -   -   -  31 38 mph 1017.9mb 58f 57f
2:50am  -   -   -  29 34 mph 1018.7mb 58f 57f
1:50am  -   -   -  29 36 mph 1019.1mb 58f 57f
12:50am  -   -   -  29 34 mph 1019.3mb 58f 57f
Fri 03/27 11:50pm 10ft 14s 6s 31 36 mph 1019.6mb 58f 56f
10:50pm 10.5ft 7s 6s 31 38 mph 1019.7mb 58f 56f
9:50pm  -   -   -  29 36 mph 1019.5mb 59f 55f
8:50pm 9ft 15s 6s 29 34 mph 1019.3mb 59f 55f
7:50pm 8.5ft 11s 6s 27 34 mph 1018.8mb 60f 56f
6:50pm 8.5ft 11s 6s 27 31 mph 1018.5mb 60f 56f
5:50pm  -   -   -  27 31 mph 1018.7mb 60f 56f
4:50pm 8ft 6s 6s 27 34 mph 1018.9mb 60f 56f
3:50pm 7.5ft 11s 6s 27 31 mph 1018.9mb 60f 56f
2:50pm 7.5ft 11s 6s 27 31 mph 1019.5mb 59f 56f
1:50pm 7ft 11s 6s 25 29 mph 1019.9mb 59f 55f
12:50pm 6.5ft 11s 6s 22 27 mph 1020.5mb 59f 55f
11:50am 6ft 11s 6s 20 25 mph 1020.4mb 59f 55f
10:50am  -   -   -  20 25 mph 1020.4mb 59f 54f
9:50am 7ft 11s 7s 18 22 mph 1020mb 59f 54f
8:50am 6.5ft 11s 6s 18 22 mph 1019.5mb 59f 54f